sensor_id;sensor_type;location;lat;lon;timestamp;pressure;altitude;pressure_sealevel;temperature;humidity
55317;BME280;41178;48.956;8.130;2023-04-29T00:03:44;99145.06;;;19.44;48.35
55317;BME280;41178;48.956;8.130;2023-04-29T00:08:46;99121.59;;;19.60;47.93
55317;BME280;41178;48.956;8.130;2023-04-29T00:13:48;99095.25;;;18.19;50.40
55317;BME280;41178;48.956;8.130;2023-04-29T00:18:49;99075.38;;;19.12;48.14
55317;BME280;41178;48.956;8.130;2023-04-29T00:23:51;99135.38;;;20.39;46.82
55317;BME280;41178;48.956;8.130;2023-04-29T00:28:53;99112.09;;;20.05;46.68
55317;BME280;41178;48.956;8.130;2023-04-29T00:33:54;99141.97;;;18.98;48.99
55317;BME280;41178;48.956;8.130;2023-04-29T00:38:56;99132.97;;;20.53;46.31
55317;BME280;41178;48.956;8.130;2023-04-29T00:43:59;99152.84;;;19.30;48.45
55317;BME280;41178;48.956;8.130;2023-04-29T00:49:00;99082.34;;;19.73;47.16
55317;BME280;41178;48.956;8.130;2023-04-29T00:54:06;99125.50;;;19.37;48.04
55317;BME280;41178;48.956;8.130;2023-04-29T00:59:09;99148.53;;;19.07;48.99
55317;BME280;41178;48.956;8.130;2023-04-29T01:04:13;99082.91;;;20.23;46.74
55317;BME280;41178;48.956;8.130;2023-04-29T01:09:43;99080.41;;;20.16;46.37
55317;BME280;41178;48.956;8.130;2023-04-29T01:14:53;99121.25;;;18.92;48.07
55317;BME280;41178;48.956;8.130;2023-04-29T01:19:59;99122.09;;;19.89;46.81
55317;BME280;41178;48.956;8.130;2023-04-29T01:25:02;99133.94;;;21.10;44.95
55317;BME280;41178;48.956;8.130;2023-04-29T01:41:00;99130.69;;;21.08;44.46
55317;BME280;41178;48.956;8.130;2023-04-29T01:46:15;99147.72;;;19.66;46.08
55317;BME280;41178;48.956;8.130;2023-04-29T01:51:18;99163.97;;;19.61;46.27
55317;BME280;41178;48.956;8.130;2023-04-29T01:56:20;99152.91;;;18.20;48.78
55317;BME280;41178;48.956;8.130;2023-04-29T02:01:22;99131.44;;;18.79;47.01
55317;BME280;41178;48.956;8.130;2023-04-29T02:06:24;99152.38;;;18.62;47.45
55317;BME280;41178;48.956;8.130;2023-04-29T02:11:26;99164.03;;;17.50;49.51
55317;BME280;41178;48.956;8.130;2023-04-29T02:16:28;99141.56;;;17.16;49.78
55317;BME280;41178;48.956;8.130;2023-04-29T02:21:30;99173.34;;;19.21;46.46
55317;BME280;41178;48.956;8.130;2023-04-29T02:26:32;99187.47;;;18.13;47.82
55317;BME280;41178;48.956;8.130;2023-04-29T02:31:34;99186.16;;;17.30;49.09
55317;BME280;41178;48.956;8.130;2023-04-29T02:36:36;99205.31;;;16.59;50.59
55317;BME280;41178;48.956;8.130;2023-04-29T02:41:38;99237.97;;;17.10;49.57
55317;BME280;41178;48.956;8.130;2023-04-29T02:46:39;99253.34;;;18.35;47.41
55317;BME280;41178;48.956;8.130;2023-04-29T02:51:45;99267.63;;;17.51;48.52
55317;BME280;41178;48.956;8.130;2023-04-29T02:56:49;99243.41;;;18.41;46.64
55317;BME280;41178;48.956;8.130;2023-04-29T03:01:51;99276.47;;;17.29;48.49
55317;BME280;41178;48.956;8.130;2023-04-29T03:06:55;99266.25;;;17.48;47.67
55317;BME280;41178;48.956;8.130;2023-04-29T03:11:59;99262.66;;;17.43;48.26
55317;BME280;41178;48.956;8.130;2023-04-29T03:17:01;99250.66;;;18.96;45.75
55317;BME280;41178;48.956;8.130;2023-04-29T03:22:03;99291.34;;;17.89;46.92
55317;BME280;41178;48.956;8.130;2023-04-29T03:27:04;99200.53;;;16.38;47.80
55317;BME280;41178;48.956;8.130;2023-04-29T03:32:06;99257.06;;;18.12;46.32
55317;BME280;41178;48.956;8.130;2023-04-29T03:37:08;99256.03;;;18.18;45.68
55317;BME280;41178;48.956;8.130;2023-04-29T03:42:09;99310.88;;;17.63;46.53
55317;BME280;41178;48.956;8.130;2023-04-29T03:47:11;99244.75;;;18.82;44.58
55317;BME280;41178;48.956;8.130;2023-04-29T03:52:14;99265.63;;;19.26;44.17
55317;BME280;41178;48.956;8.130;2023-04-29T03:57:16;99259.63;;;18.80;44.48
55317;BME280;41178;48.956;8.130;2023-04-29T04:02:18;99277.09;;;18.89;44.51
55317;BME280;41178;48.956;8.130;2023-04-29T04:07:20;99311.53;;;18.50;44.55
55317;BME280;41178;48.956;8.130;2023-04-29T04:12:21;99263.25;;;17.62;45.18
55317;BME280;41178;48.956;8.130;2023-04-29T04:17:23;99334.75;;;17.66;45.77
55317;BME280;41178;48.956;8.130;2023-04-29T04:22:24;99238.56;;;16.36;46.63
55317;BME280;41178;48.956;8.130;2023-04-29T04:27:26;99368.91;;;16.43;47.91
55317;BME280;41178;48.956;8.130;2023-04-29T04:32:28;99321.31;;;14.72;50.28
55317;BME280;41178;48.956;8.130;2023-04-29T04:37:29;99355.69;;;13.56;52.18
55317;BME280;41178;48.956;8.130;2023-04-29T04:42:31;99427.81;;;13.73;52.24
55317;BME280;41178;48.956;8.130;2023-04-29T04:47:32;99467.09;;;14.26;51.23
55317;BME280;41178;48.956;8.130;2023-04-29T04:52:34;99460.66;;;14.58;49.97
55317;BME280;41178;48.956;8.130;2023-04-29T04:57:36;99424.38;;;14.86;49.01
55317;BME280;41178;48.956;8.130;2023-04-29T05:02:38;99441.63;;;16.69;47.26
55317;BME280;41178;48.956;8.130;2023-04-29T05:07:39;99401.53;;;15.51;47.78
55317;BME280;41178;48.956;8.130;2023-04-29T05:12:41;99430.56;;;17.41;45.97
55317;BME280;41178;48.956;8.130;2023-04-29T05:17:43;99308.44;;;19.24;42.92
55317;BME280;41178;48.956;8.130;2023-04-29T05:22:44;99349.13;;;18.63;44.38
55317;BME280;41178;48.956;8.130;2023-04-29T05:27:46;99337.44;;;17.37;45.54
55317;BME280;41178;48.956;8.130;2023-04-29T05:32:47;99386.13;;;17.78;46.03
55317;BME280;41178;48.956;8.130;2023-04-29T05:37:49;99370.66;;;18.36;45.34
55317;BME280;41178;48.956;8.130;2023-04-29T05:42:51;99388.94;;;18.00;45.97
55317;BME280;41178;48.956;8.130;2023-04-29T05:47:52;99400.03;;;16.70;47.74
55317;BME280;41178;48.956;8.130;2023-04-29T05:52:54;99434.91;;;18.40;46.09
55317;BME280;41178;48.956;8.130;2023-04-29T05:57:56;99375.59;;;18.10;46.73
55317;BME280;41178;48.956;8.130;2023-04-29T06:02:58;99436.19;;;17.63;47.38
55317;BME280;41178;48.956;8.130;2023-04-29T06:08:00;99395.81;;;18.70;45.26
55317;BME280;41178;48.956;8.130;2023-04-29T06:13:02;99419.84;;;17.46;47.41
55317;BME280;41178;48.956;8.130;2023-04-29T06:18:04;99425.47;;;18.60;46.64
55317;BME280;41178;48.956;8.130;2023-04-29T06:23:06;99425.69;;;17.96;47.49
55317;BME280;41178;48.956;8.130;2023-04-29T06:28:08;99455.38;;;17.38;47.92
55317;BME280;41178;48.956;8.130;2023-04-29T06:33:09;99440.91;;;17.21;47.92
55317;BME280;41178;48.956;8.130;2023-04-29T06:38:12;99460.91;;;17.20;47.81
55317;BME280;41178;48.956;8.130;2023-04-29T06:43:13;99450.66;;;17.33;47.74
55317;BME280;41178;48.956;8.130;2023-04-29T06:48:15;99447.38;;;19.09;45.36
55317;BME280;41178;48.956;8.130;2023-04-29T06:53:17;99422.84;;;15.90;48.82
55317;BME280;41178;48.956;8.130;2023-04-29T06:58:19;99448.69;;;18.10;45.39
55317;BME280;41178;48.956;8.130;2023-04-29T07:03:21;99443.88;;;16.95;46.76
55317;BME280;41178;48.956;8.130;2023-04-29T07:08:23;99466.91;;;17.33;45.92
55317;BME280;41178;48.956;8.130;2023-04-29T07:13:24;99400.59;;;18.63;44.87
55317;BME280;41178;48.956;8.130;2023-04-29T07:18:26;99478.00;;;19.27;44.39
55317;BME280;41178;48.956;8.130;2023-04-29T07:23:28;99418.19;;;19.16;43.72
55317;BME280;41178;48.956;8.130;2023-04-29T07:28:29;99382.41;;;20.13;42.25
55317;BME280;41178;48.956;8.130;2023-04-29T07:33:31;99442.28;;;20.88;41.83
55317;BME280;41178;48.956;8.130;2023-04-29T07:38:33;99428.06;;;18.89;42.73
55317;BME280;41178;48.956;8.130;2023-04-29T07:43:35;99455.53;;;20.47;41.62
55317;BME280;41178;48.956;8.130;2023-04-29T07:48:37;99441.41;;;19.95;41.71
55317;BME280;41178;48.956;8.130;2023-04-29T07:53:40;99463.97;;;19.13;42.88
55317;BME280;41178;48.956;8.130;2023-04-29T07:58:41;99414.06;;;20.02;41.33
55317;BME280;41178;48.956;8.130;2023-04-29T08:03:43;99395.50;;;20.86;40.66
55317;BME280;41178;48.956;8.130;2023-04-29T08:08:47;99441.78;;;19.38;42.31
55317;BME280;41178;48.956;8.130;2023-04-29T08:13:49;99519.13;;;19.01;42.43
55317;BME280;41178;48.956;8.130;2023-04-29T08:18:50;99485.34;;;19.09;41.25
55317;BME280;41178;48.956;8.130;2023-04-29T08:23:53;99491.50;;;19.83;41.31
55317;BME280;41178;48.956;8.130;2023-04-29T08:28:56;99449.19;;;20.14;39.98
55317;BME280;41178;48.956;8.130;2023-04-29T08:33:57;99447.97;;;20.00;40.89
55317;BME280;41178;48.956;8.130;2023-04-29T08:38:59;99471.47;;;20.38;40.49
55317;BME280;41178;48.956;8.130;2023-04-29T08:44:00;99490.06;;;19.75;41.82
55317;BME280;41178;48.956;8.130;2023-04-29T08:49:02;99443.84;;;18.92;41.78
55317;BME280;41178;48.956;8.130;2023-04-29T08:54:04;99437.66;;;20.56;40.78
55317;BME280;41178;48.956;8.130;2023-04-29T08:59:08;99529.53;;;18.93;42.58
55317;BME280;41178;48.956;8.130;2023-04-29T09:04:57;99444.31;;;20.11;40.81
55317;BME280;41178;48.956;8.130;2023-04-29T09:10:03;99439.78;;;19.28;40.08
55317;BME280;41178;48.956;8.130;2023-04-29T09:15:05;99482.38;;;17.62;42.04
55317;BME280;41178;48.956;8.130;2023-04-29T09:25:21;99484.56;;;18.29;41.32
55317;BME280;41178;48.956;8.130;2023-04-29T09:30:23;99492.38;;;19.88;39.50
55317;BME280;41178;48.956;8.130;2023-04-29T09:35:26;99455.31;;;20.86;38.36
55317;BME280;41178;48.956;8.130;2023-04-29T09:40:32;99473.03;;;19.41;39.62
55317;BME280;41178;48.956;8.130;2023-04-29T09:45:47;99414.94;;;21.15;39.41
55317;BME280;41178;48.956;8.130;2023-04-29T09:51:00;99470.47;;;20.49;39.24
55317;BME280;41178;48.956;8.130;2023-04-29T09:56:02;99434.56;;;21.17;39.53
55317;BME280;41178;48.956;8.130;2023-04-29T10:01:06;99464.19;;;20.44;39.25
55317;BME280;41178;48.956;8.130;2023-04-29T10:06:08;99409.50;;;21.15;38.51
55317;BME280;41178;48.956;8.130;2023-04-29T10:11:10;99454.63;;;21.06;38.68
55317;BME280;41178;48.956;8.130;2023-04-29T10:16:27;99508.97;;;20.14;39.00
55317;BME280;41178;48.956;8.130;2023-04-29T10:21:30;99474.91;;;18.21;40.61
55317;BME280;41178;48.956;8.130;2023-04-29T10:26:33;99401.53;;;20.98;37.83
55317;BME280;41178;48.956;8.130;2023-04-29T10:31:40;99479.25;;;18.22;40.31
55317;BME280;41178;48.956;8.130;2023-04-29T10:36:43;99332.78;;;21.97;37.09
55317;BME280;41178;48.956;8.130;2023-04-29T10:41:46;99428.19;;;20.26;39.67
55317;BME280;41178;48.956;8.130;2023-04-29T10:46:47;99479.50;;;18.83;40.38
55317;BME280;41178;48.956;8.130;2023-04-29T10:51:49;99449.34;;;20.89;37.53
55317;BME280;41178;48.956;8.130;2023-04-29T10:56:52;99490.28;;;19.12;39.61
55317;BME280;41178;48.956;8.130;2023-04-29T11:06:50;99601.16;;;14.42;52.72
55317;BME280;41178;48.956;8.130;2023-04-29T11:11:56;99536.88;;;16.15;49.73
55317;BME280;41178;48.956;8.130;2023-04-29T11:17:01;99537.13;;;15.77;49.57
55317;BME280;41178;48.956;8.130;2023-04-29T11:22:27;99546.31;;;16.06;49.31
55317;BME280;41178;48.956;8.130;2023-04-29T11:27:32;99520.00;;;16.92;48.10
55317;BME280;41178;48.956;8.130;2023-04-29T11:32:38;99536.97;;;17.11;47.55
55317;BME280;41178;48.956;8.130;2023-04-29T11:37:44;99554.63;;;16.84;47.48
55317;BME280;41178;48.956;8.130;2023-04-29T11:42:47;99509.91;;;17.59;46.79
55317;BME280;41178;48.956;8.130;2023-04-29T11:47:50;99585.41;;;15.85;47.52
55317;BME280;41178;48.956;8.130;2023-04-29T11:52:56;99450.25;;;18.69;44.35
55317;BME280;41178;48.956;8.130;2023-04-29T11:57:58;99503.56;;;17.77;45.82
55317;BME280;41178;48.956;8.130;2023-04-29T12:03:00;99491.72;;;18.52;44.68
55317;BME280;41178;48.956;8.130;2023-04-29T12:08:02;99547.78;;;17.35;45.54
55317;BME280;41178;48.956;8.130;2023-04-29T12:13:04;99507.97;;;18.52;44.32
55317;BME280;41178;48.956;8.130;2023-04-29T12:18:06;99564.81;;;16.70;44.98
55317;BME280;41178;48.956;8.130;2023-04-29T12:23:19;99538.56;;;17.95;44.26
55317;BME280;41178;48.956;8.130;2023-04-29T12:28:24;99563.97;;;16.99;45.04
55317;BME280;41178;48.956;8.130;2023-04-29T12:33:28;99508.22;;;18.96;42.47
55317;BME280;41178;48.956;8.130;2023-04-29T12:38:30;99496.94;;;19.05;42.91
55317;BME280;41178;48.956;8.130;2023-04-29T12:43:32;99608.88;;;17.66;45.16
55317;BME280;41178;48.956;8.130;2023-04-29T12:48:35;99481.19;;;19.01;42.50
55317;BME280;41178;48.956;8.130;2023-04-29T12:53:39;99530.00;;;19.57;41.96
55317;BME280;41178;48.956;8.130;2023-04-29T12:58:41;99568.75;;;19.02;42.89
55317;BME280;41178;48.956;8.130;2023-04-29T13:03:42;99588.28;;;18.30;43.83
55317;BME280;41178;48.956;8.130;2023-04-29T13:08:44;99596.38;;;16.57;44.97
55317;BME280;41178;48.956;8.130;2023-04-29T13:13:46;99557.94;;;18.73;43.21
55317;BME280;41178;48.956;8.130;2023-04-29T13:18:48;99557.72;;;18.46;42.43
55317;BME280;41178;48.956;8.130;2023-04-29T13:24:08;99565.72;;;18.98;42.94
55317;BME280;41178;48.956;8.130;2023-04-29T13:29:10;99534.41;;;19.47;41.89
55317;BME280;41178;48.956;8.130;2023-04-29T13:34:12;99611.22;;;18.27;42.69
55317;BME280;41178;48.956;8.130;2023-04-29T13:39:14;99606.53;;;18.63;42.51
55317;BME280;41178;48.956;8.130;2023-04-29T13:44:15;99612.81;;;17.40;43.78
55317;BME280;41178;48.956;8.130;2023-04-29T13:49:31;99606.50;;;17.70;43.46
55317;BME280;41178;48.956;8.130;2023-04-29T13:54:35;99621.00;;;16.49;44.59
55317;BME280;41178;48.956;8.130;2023-04-29T13:59:57;99612.28;;;17.73;43.13
55317;BME280;41178;48.956;8.130;2023-04-29T14:04:59;99616.91;;;18.25;42.96
55317;BME280;41178;48.956;8.130;2023-04-29T14:10:02;99663.31;;;16.18;44.97
55317;BME280;41178;48.956;8.130;2023-04-29T14:15:04;99593.81;;;18.23;43.53
55317;BME280;41178;48.956;8.130;2023-04-29T14:20:07;99705.41;;;16.01;45.57
55317;BME280;41178;48.956;8.130;2023-04-29T14:25:08;99712.41;;;16.09;45.29
55317;BME280;41178;48.956;8.130;2023-04-29T14:30:12;99646.44;;;15.61;45.55
55317;BME280;41178;48.956;8.130;2023-04-29T14:35:14;99716.59;;;16.04;45.80
55317;BME280;41178;48.956;8.130;2023-04-29T14:40:16;99688.19;;;16.20;45.39
55317;BME280;41178;48.956;8.130;2023-04-29T14:45:18;99725.94;;;16.02;45.85
55317;BME280;41178;48.956;8.130;2023-04-29T14:50:19;99680.63;;;16.29;45.29
55317;BME280;41178;48.956;8.130;2023-04-29T14:55:23;99678.59;;;17.64;44.37
55317;BME280;41178;48.956;8.130;2023-04-29T15:00:25;99715.97;;;16.65;44.30
55317;BME280;41178;48.956;8.130;2023-04-29T15:05:26;99649.81;;;16.86;43.29
55317;BME280;41178;48.956;8.130;2023-04-29T15:10:31;99630.16;;;19.08;41.79
55317;BME280;41178;48.956;8.130;2023-04-29T15:15:32;99703.09;;;16.78;44.41
55317;BME280;41178;48.956;8.130;2023-04-29T15:20:36;99620.78;;;18.30;42.36
55317;BME280;41178;48.956;8.130;2023-04-29T15:25:37;99626.66;;;18.67;41.59
55317;BME280;41178;48.956;8.130;2023-04-29T15:30:39;99700.88;;;17.24;43.60
55317;BME280;41178;48.956;8.130;2023-04-29T15:35:41;99647.06;;;18.17;43.26
55317;BME280;41178;48.956;8.130;2023-04-29T15:40:42;99701.34;;;18.34;43.01
55317;BME280;41178;48.956;8.130;2023-04-29T15:45:44;99703.31;;;18.03;42.65
55317;BME280;41178;48.956;8.130;2023-04-29T15:50:46;99756.47;;;17.32;43.65
55317;BME280;41178;48.956;8.130;2023-04-29T15:55:48;99692.91;;;17.41;42.71
55317;BME280;41178;48.956;8.130;2023-04-29T16:00:49;99699.91;;;17.96;43.34
55317;BME280;41178;48.956;8.130;2023-04-29T16:05:51;99729.31;;;16.41;44.56
55317;BME280;41178;48.956;8.130;2023-04-29T16:10:53;99706.97;;;17.85;43.53
55317;BME280;41178;48.956;8.130;2023-04-29T16:15:55;99696.25;;;18.26;42.56
55317;BME280;41178;48.956;8.130;2023-04-29T16:20:56;99641.81;;;18.80;41.87
55317;BME280;41178;48.956;8.130;2023-04-29T16:25:59;99714.31;;;17.01;43.09
55317;BME280;41178;48.956;8.130;2023-04-29T16:31:01;99667.41;;;18.72;41.87
55317;BME280;41178;48.956;8.130;2023-04-29T16:36:02;99703.19;;;17.63;43.14
55317;BME280;41178;48.956;8.130;2023-04-29T16:41:05;99747.78;;;16.81;43.94
55317;BME280;41178;48.956;8.130;2023-04-29T16:46:08;99656.75;;;18.54;42.15
55317;BME280;41178;48.956;8.130;2023-04-29T16:51:10;99709.47;;;17.99;42.81
55317;BME280;41178;48.956;8.130;2023-04-29T16:56:12;99712.97;;;17.76;42.50
55317;BME280;41178;48.956;8.130;2023-04-29T17:01:13;99700.72;;;16.15;43.97
55317;BME280;41178;48.956;8.130;2023-04-29T17:06:15;99709.28;;;17.58;42.42
55317;BME280;41178;48.956;8.130;2023-04-29T17:11:17;99744.63;;;17.75;42.46
55317;BME280;41178;48.956;8.130;2023-04-29T17:16:19;99712.38;;;17.73;42.00
55317;BME280;41178;48.956;8.130;2023-04-29T17:21:21;99676.91;;;18.87;41.82
55317;BME280;41178;48.956;8.130;2023-04-29T17:26:26;99645.75;;;18.89;41.76
55317;BME280;41178;48.956;8.130;2023-04-29T17:31:27;99658.00;;;19.20;41.36
55317;BME280;41178;48.956;8.130;2023-04-29T17:36:45;99657.59;;;19.12;41.53
55317;BME280;41178;48.956;8.130;2023-04-29T17:41:47;99676.84;;;18.29;42.03
55317;BME280;41178;48.956;8.130;2023-04-29T17:46:49;99712.19;;;18.75;41.51
55317;BME280;41178;48.956;8.130;2023-04-29T17:51:51;99693.34;;;19.26;40.57
55317;BME280;41178;48.956;8.130;2023-04-29T17:56:52;99689.41;;;18.76;41.27
55317;BME280;41178;48.956;8.130;2023-04-29T18:01:54;99692.97;;;18.36;41.60
55317;BME280;41178;48.956;8.130;2023-04-29T18:06:56;99712.16;;;19.15;40.60
55317;BME280;41178;48.956;8.130;2023-04-29T18:11:57;99694.09;;;18.52;41.73
55317;BME280;41178;48.956;8.130;2023-04-29T18:16:59;99701.41;;;18.92;41.31
55317;BME280;41178;48.956;8.130;2023-04-29T18:22:01;99732.50;;;18.25;41.69
55317;BME280;41178;48.956;8.130;2023-04-29T18:27:03;99717.28;;;18.71;41.47
55317;BME280;41178;48.956;8.130;2023-04-29T18:32:04;99719.13;;;18.71;41.28
55317;BME280;41178;48.956;8.130;2023-04-29T18:37:08;99747.56;;;17.31;42.38
55317;BME280;41178;48.956;8.130;2023-04-29T18:42:10;99717.81;;;17.31;42.13
55317;BME280;41178;48.956;8.130;2023-04-29T18:47:11;99745.81;;;18.50;41.06
55317;BME280;41178;48.956;8.130;2023-04-29T18:52:13;99698.50;;;18.81;40.95
55317;BME280;41178;48.956;8.130;2023-04-29T18:57:15;99767.13;;;18.58;40.96
55317;BME280;41178;48.956;8.130;2023-04-29T19:02:16;99744.75;;;18.63;41.10
55317;BME280;41178;48.956;8.130;2023-04-29T19:07:18;99737.69;;;18.03;42.02
55317;BME280;41178;48.956;8.130;2023-04-29T19:12:19;99753.00;;;17.97;41.95
55317;BME280;41178;48.956;8.130;2023-04-29T19:17:21;99791.63;;;17.02;43.26
55317;BME280;41178;48.956;8.130;2023-04-29T19:22:23;99711.16;;;16.30;43.41
55317;BME280;41178;48.956;8.130;2023-04-29T19:27:24;99797.72;;;16.10;44.84
55317;BME280;41178;48.956;8.130;2023-04-29T19:32:26;99831.25;;;16.71;44.49
55317;BME280;41178;48.956;8.130;2023-04-29T19:37:30;99808.63;;;16.84;44.10
55317;BME280;41178;48.956;8.130;2023-04-29T19:42:32;99781.59;;;16.03;44.74
55317;BME280;41178;48.956;8.130;2023-04-29T19:47:33;99782.09;;;15.61;45.88
55317;BME280;41178;48.956;8.130;2023-04-29T19:52:35;99849.50;;;15.68;45.95
55317;BME280;41178;48.956;8.130;2023-04-29T19:57:37;99781.06;;;13.45;48.80
55317;BME280;41178;48.956;8.130;2023-04-29T20:02:42;99845.22;;;15.85;45.94
55317;BME280;41178;48.956;8.130;2023-04-29T20:07:45;99858.56;;;14.10;48.28
55317;BME280;41178;48.956;8.130;2023-04-29T20:12:46;99866.84;;;14.21;48.52
55317;BME280;41178;48.956;8.130;2023-04-29T20:17:48;99836.41;;;14.34;47.58
55317;BME280;41178;48.956;8.130;2023-04-29T20:22:50;99899.75;;;14.44;48.26
55317;BME280;41178;48.956;8.130;2023-04-29T20:27:52;99906.47;;;15.33;47.33
55317;BME280;41178;48.956;8.130;2023-04-29T20:32:54;99891.69;;;15.56;45.91
55317;BME280;41178;48.956;8.130;2023-04-29T20:37:56;99873.03;;;14.69;47.17
55317;BME280;41178;48.956;8.130;2023-04-29T20:42:58;99894.16;;;14.99;46.91
55317;BME280;41178;48.956;8.130;2023-04-29T20:47:59;99838.28;;;16.72;45.07
55317;BME280;41178;48.956;8.130;2023-04-29T20:53:01;99894.06;;;16.09;45.41
55317;BME280;41178;48.956;8.130;2023-04-29T20:58:03;99877.47;;;16.05;45.33
55317;BME280;41178;48.956;8.130;2023-04-29T21:03:05;99920.63;;;16.12;45.64
55317;BME280;41178;48.956;8.130;2023-04-29T21:08:08;99919.63;;;14.96;47.44
55317;BME280;41178;48.956;8.130;2023-04-29T21:13:09;99938.09;;;14.86;47.43
55317;BME280;41178;48.956;8.130;2023-04-29T21:18:11;99876.66;;;16.05;45.83
55317;BME280;41178;48.956;8.130;2023-04-29T21:23:13;99921.59;;;15.93;45.96
55317;BME280;41178;48.956;8.130;2023-04-29T21:28:15;99916.91;;;15.03;46.54
55317;BME280;41178;48.956;8.130;2023-04-29T21:33:17;99959.44;;;14.94;47.85
55317;BME280;41178;48.956;8.130;2023-04-29T21:38:19;99953.00;;;14.55;48.43
55317;BME280;41178;48.956;8.130;2023-04-29T21:43:21;99928.56;;;14.50;48.23
55317;BME280;41178;48.956;8.130;2023-04-29T21:48:23;99882.88;;;13.81;48.95
55317;BME280;41178;48.956;8.130;2023-04-29T21:53:25;99961.88;;;14.29;48.90
55317;BME280;41178;48.956;8.130;2023-04-29T21:58:27;99953.59;;;15.17;47.24
55317;BME280;41178;48.956;8.130;2023-04-29T22:03:28;99980.97;;;15.01;48.24
55317;BME280;41178;48.956;8.130;2023-04-29T22:08:31;99945.94;;;14.81;47.46
55317;BME280;41178;48.956;8.130;2023-04-29T22:13:32;99938.69;;;13.59;49.28
55317;BME280;41178;48.956;8.130;2023-04-29T22:18:34;99991.72;;;14.54;48.66
55317;BME280;41178;48.956;8.130;2023-04-29T22:23:35;99989.41;;;14.17;48.73
55317;BME280;41178;48.956;8.130;2023-04-29T22:28:37;99901.03;;;12.83;50.38
55317;BME280;41178;48.956;8.130;2023-04-29T22:33:38;99945.63;;;13.40;49.02
55317;BME280;41178;48.956;8.130;2023-04-29T22:38:40;99985.28;;;14.42;47.96
55317;BME280;41178;48.956;8.130;2023-04-29T22:43:42;99911.94;;;12.74;50.07
55317;BME280;41178;48.956;8.130;2023-04-29T22:48:44;99977.16;;;13.60;48.79
55317;BME280;41178;48.956;8.130;2023-04-29T22:53:46;100001.66;;;13.37;49.95
55317;BME280;41178;48.956;8.130;2023-04-29T22:58:47;99985.41;;;13.23;50.46
55317;BME280;41178;48.956;8.130;2023-04-29T23:03:49;99998.72;;;13.32;50.35
55317;BME280;41178;48.956;8.130;2023-04-29T23:08:52;100020.97;;;13.54;50.13
55317;BME280;41178;48.956;8.130;2023-04-29T23:13:53;100017.63;;;14.68;48.53
55317;BME280;41178;48.956;8.130;2023-04-29T23:18:55;100014.50;;;14.51;47.88
55317;BME280;41178;48.956;8.130;2023-04-29T23:23:56;100031.91;;;14.62;48.43
55317;BME280;41178;48.956;8.130;2023-04-29T23:28:58;100033.72;;;14.28;48.66
55317;BME280;41178;48.956;8.130;2023-04-29T23:34:00;100026.34;;;13.95;48.59
55317;BME280;41178;48.956;8.130;2023-04-29T23:39:02;100021.81;;;15.18;46.95
55317;BME280;41178;48.956;8.130;2023-04-29T23:44:04;100013.22;;;13.72;48.53
55317;BME280;41178;48.956;8.130;2023-04-29T23:49:05;100010.59;;;14.74;47.21
55317;BME280;41178;48.956;8.130;2023-04-29T23:54:07;100054.56;;;14.94;47.66
55317;BME280;41178;48.956;8.130;2023-04-29T23:59:08;100038.38;;;15.21;47.07
